sensor_id;sensor_type;location;lat;lon;timestamp;P1;durP1;ratioP1;P2;durP2;ratioP2
20855;SDS011;63058;49.424;8.420;2023-10-13T00:01:26;8.40;;;4.22;;
20855;SDS011;63058;49.424;8.420;2023-10-13T00:03:52;6.75;;;4.28;;
20855;SDS011;63058;49.424;8.420;2023-10-13T00:06:18;5.18;;;3.67;;
20855;SDS011;63058;49.424;8.420;2023-10-13T00:08:44;7.97;;;4.05;;
20855;SDS011;63058;49.424;8.420;2023-10-13T00:11:14;9.40;;;3.80;;
20855;SDS011;63058;49.424;8.420;2023-10-13T00:13:40;5.85;;;3.90;;
20855;SDS011;63058;49.424;8.420;2023-10-13T00:16:19;5.85;;;4.40;;
20855;SDS011;63058;49.424;8.420;2023-10-13T00:18:52;8.55;;;4.30;;
20855;SDS011;63058;49.424;8.420;2023-10-13T00:21:22;6.07;;;3.95;;
20855;SDS011;63058;49.424;8.420;2023-10-13T00:23:58;5.30;;;3.72;;
20855;SDS011;63058;49.424;8.420;2023-10-13T00:26:27;7.95;;;3.95;;
20855;SDS011;63058;49.424;8.420;2023-10-13T00:28:57;5.13;;;4.10;;
20855;SDS011;63058;49.424;8.420;2023-10-13T00:31:33;8.15;;;4.30;;
20855;SDS011;63058;49.424;8.420;2023-10-13T00:34:03;5.40;;;4.15;;
20855;SDS011;63058;49.424;8.420;2023-10-13T00:36:50;6.35;;;3.60;;
20855;SDS011;63058;49.424;8.420;2023-10-13T00:39:35;6.93;;;4.00;;
20855;SDS011;63058;49.424;8.420;2023-10-13T00:42:04;5.13;;;3.38;;
20855;SDS011;63058;49.424;8.420;2023-10-13T00:44:42;5.55;;;3.80;;
20855;SDS011;63058;49.424;8.420;2023-10-13T00:47:13;6.72;;;3.47;;
20855;SDS011;63058;49.424;8.420;2023-10-13T00:49:47;7.47;;;3.80;;
20855;SDS011;63058;49.424;8.420;2023-10-13T00:52:13;10.82;;;4.03;;
20855;SDS011;63058;49.424;8.420;2023-10-13T00:54:41;5.13;;;3.30;;
20855;SDS011;63058;49.424;8.420;2023-10-13T00:57:12;5.57;;;3.78;;
20855;SDS011;63058;49.424;8.420;2023-10-13T00:59:59;4.07;;;3.38;;
20855;SDS011;63058;49.424;8.420;2023-10-13T01:02:46;7.03;;;4.03;;
20855;SDS011;63058;49.424;8.420;2023-10-13T01:05:20;8.43;;;3.67;;
20855;SDS011;63058;49.424;8.420;2023-10-13T01:07:50;8.52;;;3.92;;
20855;SDS011;63058;49.424;8.420;2023-10-13T01:10:19;9.82;;;3.83;;
20855;SDS011;63058;49.424;8.420;2023-10-13T01:12:51;5.22;;;3.58;;
20855;SDS011;63058;49.424;8.420;2023-10-13T01:15:20;8.13;;;3.97;;
20855;SDS011;63058;49.424;8.420;2023-10-13T01:17:47;5.38;;;3.88;;
20855;SDS011;63058;49.424;8.420;2023-10-13T01:20:16;7.80;;;4.30;;
20855;SDS011;63058;49.424;8.420;2023-10-13T01:22:50;7.38;;;3.72;;
20855;SDS011;63058;49.424;8.420;2023-10-13T01:25:21;5.97;;;3.78;;
20855;SDS011;63058;49.424;8.420;2023-10-13T01:27:53;5.40;;;4.00;;
20855;SDS011;63058;49.424;8.420;2023-10-13T01:30:20;4.75;;;3.65;;
20855;SDS011;63058;49.424;8.420;2023-10-13T01:32:53;6.65;;;3.40;;
20855;SDS011;63058;49.424;8.420;2023-10-13T01:35:19;7.10;;;3.88;;
20855;SDS011;63058;49.424;8.420;2023-10-13T01:37:51;5.53;;;4.10;;
20855;SDS011;63058;49.424;8.420;2023-10-13T01:40:16;5.60;;;4.05;;
20855;SDS011;63058;49.424;8.420;2023-10-13T01:42:48;4.55;;;3.67;;
20855;SDS011;63058;49.424;8.420;2023-10-13T01:45:20;7.63;;;3.75;;
20855;SDS011;63058;49.424;8.420;2023-10-13T01:47:46;8.20;;;3.80;;
20855;SDS011;63058;49.424;8.420;2023-10-13T01:50:15;5.60;;;4.03;;
20855;SDS011;63058;49.424;8.420;2023-10-13T01:52:47;5.20;;;3.63;;
20855;SDS011;63058;49.424;8.420;2023-10-13T01:55:13;6.53;;;3.60;;
20855;SDS011;63058;49.424;8.420;2023-10-13T01:57:39;8.13;;;4.35;;
20855;SDS011;63058;49.424;8.420;2023-10-13T02:00:07;7.28;;;4.28;;
20855;SDS011;63058;49.424;8.420;2023-10-13T02:02:44;7.80;;;4.15;;
20855;SDS011;63058;49.424;8.420;2023-10-13T02:05:15;6.97;;;3.80;;
20855;SDS011;63058;49.424;8.420;2023-10-13T02:07:42;8.00;;;4.00;;
20855;SDS011;63058;49.424;8.420;2023-10-13T02:10:11;6.85;;;4.22;;
20855;SDS011;63058;49.424;8.420;2023-10-13T02:12:37;7.15;;;4.30;;
20855;SDS011;63058;49.424;8.420;2023-10-13T02:15:10;8.18;;;4.47;;
20855;SDS011;63058;49.424;8.420;2023-10-13T02:17:51;8.07;;;4.28;;
20855;SDS011;63058;49.424;8.420;2023-10-13T02:20:20;7.45;;;4.18;;
20855;SDS011;63058;49.424;8.420;2023-10-13T02:22:48;8.20;;;4.32;;
20855;SDS011;63058;49.424;8.420;2023-10-13T02:25:18;8.02;;;3.92;;
20855;SDS011;63058;49.424;8.420;2023-10-13T02:28:00;6.65;;;3.97;;
20855;SDS011;63058;49.424;8.420;2023-10-13T02:30:27;5.82;;;4.13;;
20855;SDS011;63058;49.424;8.420;2023-10-13T02:32:52;6.78;;;4.28;;
20855;SDS011;63058;49.424;8.420;2023-10-13T02:35:20;7.85;;;3.95;;
20855;SDS011;63058;49.424;8.420;2023-10-13T02:37:54;7.97;;;4.32;;
20855;SDS011;63058;49.424;8.420;2023-10-13T02:40:22;8.82;;;4.35;;
20855;SDS011;63058;49.424;8.420;2023-10-13T02:42:48;7.00;;;3.83;;
20855;SDS011;63058;49.424;8.420;2023-10-13T02:45:14;6.57;;;4.40;;
20855;SDS011;63058;49.424;8.420;2023-10-13T02:47:40;5.63;;;4.20;;
20855;SDS011;63058;49.424;8.420;2023-10-13T02:50:09;8.02;;;3.85;;
20855;SDS011;63058;49.424;8.420;2023-10-13T02:52:37;5.18;;;3.72;;
20855;SDS011;63058;49.424;8.420;2023-10-13T02:55:06;5.95;;;3.70;;
20855;SDS011;63058;49.424;8.420;2023-10-13T02:57:35;5.97;;;3.35;;
20855;SDS011;63058;49.424;8.420;2023-10-13T03:00:01;6.47;;;3.83;;
20855;SDS011;63058;49.424;8.420;2023-10-13T03:02:37;5.75;;;3.90;;
20855;SDS011;63058;49.424;8.420;2023-10-13T03:05:10;6.43;;;4.10;;
20855;SDS011;63058;49.424;8.420;2023-10-13T03:07:38;5.03;;;3.63;;
20855;SDS011;63058;49.424;8.420;2023-10-13T03:10:09;7.55;;;3.75;;
20855;SDS011;63058;49.424;8.420;2023-10-13T03:12:38;5.40;;;3.58;;
20855;SDS011;63058;49.424;8.420;2023-10-13T03:15:05;5.32;;;3.50;;
20855;SDS011;63058;49.424;8.420;2023-10-13T03:17:36;6.20;;;3.85;;
20855;SDS011;63058;49.424;8.420;2023-10-13T03:20:06;8.38;;;3.67;;
20855;SDS011;63058;49.424;8.420;2023-10-13T03:22:36;4.35;;;3.55;;
20855;SDS011;63058;49.424;8.420;2023-10-13T03:25:01;6.38;;;3.42;;
20855;SDS011;63058;49.424;8.420;2023-10-13T03:27:42;8.57;;;3.85;;
20855;SDS011;63058;49.424;8.420;2023-10-13T03:30:17;6.95;;;4.00;;
20855;SDS011;63058;49.424;8.420;2023-10-13T03:32:43;7.80;;;4.32;;
20855;SDS011;63058;49.424;8.420;2023-10-13T03:35:12;5.57;;;4.07;;
20855;SDS011;63058;49.424;8.420;2023-10-13T03:37:58;6.70;;;4.00;;
20855;SDS011;63058;49.424;8.420;2023-10-13T03:40:23;7.95;;;3.53;;
20855;SDS011;63058;49.424;8.420;2023-10-13T03:48:13;4.63;;;3.10;;
20855;SDS011;63058;49.424;8.420;2023-10-13T03:50:49;4.95;;;3.47;;
20855;SDS011;63058;49.424;8.420;2023-10-13T03:53:38;4.88;;;3.08;;
20855;SDS011;63058;49.424;8.420;2023-10-13T03:56:25;9.75;;;4.00;;
20855;SDS011;63058;49.424;8.420;2023-10-13T03:58:56;4.35;;;3.55;;
20855;SDS011;63058;49.424;8.420;2023-10-13T04:01:26;5.53;;;3.60;;
20855;SDS011;63058;49.424;8.420;2023-10-13T04:04:01;3.80;;;3.42;;
20855;SDS011;63058;49.424;8.420;2023-10-13T04:06:35;6.03;;;3.78;;
20855;SDS011;63058;49.424;8.420;2023-10-13T04:09:17;5.45;;;3.70;;
20855;SDS011;63058;49.424;8.420;2023-10-13T04:12:08;5.95;;;3.83;;
20855;SDS011;63058;49.424;8.420;2023-10-13T04:14:37;4.95;;;3.70;;
20855;SDS011;63058;49.424;8.420;2023-10-13T04:17:25;6.40;;;3.60;;
20855;SDS011;63058;49.424;8.420;2023-10-13T04:19:52;5.13;;;3.60;;
20855;SDS011;63058;49.424;8.420;2023-10-13T04:22:35;5.10;;;3.78;;
20855;SDS011;63058;49.424;8.420;2023-10-13T04:25:13;6.15;;;3.33;;
20855;SDS011;63058;49.424;8.420;2023-10-13T04:28:09;5.40;;;3.38;;
20855;SDS011;63058;49.424;8.420;2023-10-13T04:30:41;6.75;;;3.80;;
20855;SDS011;63058;49.424;8.420;2023-10-13T04:33:17;9.77;;;3.70;;
20855;SDS011;63058;49.424;8.420;2023-10-13T04:36:05;5.72;;;3.50;;
20855;SDS011;63058;49.424;8.420;2023-10-13T04:38:54;7.70;;;3.40;;
20855;SDS011;63058;49.424;8.420;2023-10-13T04:41:33;7.20;;;3.53;;
20855;SDS011;63058;49.424;8.420;2023-10-13T04:44:22;5.88;;;3.90;;
20855;SDS011;63058;49.424;8.420;2023-10-13T04:47:06;5.60;;;3.17;;
20855;SDS011;63058;49.424;8.420;2023-10-13T04:49:42;5.50;;;3.78;;
20855;SDS011;63058;49.424;8.420;2023-10-13T04:52:09;6.18;;;3.65;;
20855;SDS011;63058;49.424;8.420;2023-10-13T04:54:41;8.63;;;4.07;;
20855;SDS011;63058;49.424;8.420;2023-10-13T04:59:59;4.70;;;3.45;;
20855;SDS011;63058;49.424;8.420;2023-10-13T05:02:36;7.60;;;3.72;;
20855;SDS011;63058;49.424;8.420;2023-10-13T05:05:06;5.43;;;3.72;;
20855;SDS011;63058;49.424;8.420;2023-10-13T05:08:08;4.95;;;3.35;;
20855;SDS011;63058;49.424;8.420;2023-10-13T05:10:52;5.18;;;3.10;;
20855;SDS011;63058;49.424;8.420;2023-10-13T05:13:36;6.53;;;3.80;;
20855;SDS011;63058;49.424;8.420;2023-10-13T05:16:20;5.25;;;3.58;;
20855;SDS011;63058;49.424;8.420;2023-10-13T05:19:04;5.28;;;3.60;;
20855;SDS011;63058;49.424;8.420;2023-10-13T05:21:48;5.82;;;3.45;;
20855;SDS011;63058;49.424;8.420;2023-10-13T05:24:32;6.68;;;3.85;;
20855;SDS011;63058;49.424;8.420;2023-10-13T05:27:16;5.93;;;3.97;;
20855;SDS011;63058;49.424;8.420;2023-10-13T05:30:01;7.38;;;3.55;;
20855;SDS011;63058;49.424;8.420;2023-10-13T05:32:48;5.57;;;3.50;;
20855;SDS011;63058;49.424;8.420;2023-10-13T05:35:32;6.47;;;3.63;;
20855;SDS011;63058;49.424;8.420;2023-10-13T05:38:16;5.65;;;3.78;;
20855;SDS011;63058;49.424;8.420;2023-10-13T05:41:02;6.57;;;3.70;;
20855;SDS011;63058;49.424;8.420;2023-10-13T05:43:47;4.93;;;3.60;;
20855;SDS011;63058;49.424;8.420;2023-10-13T05:46:32;5.10;;;3.50;;
20855;SDS011;63058;49.424;8.420;2023-10-13T05:49:05;3.95;;;3.47;;
20855;SDS011;63058;49.424;8.420;2023-10-13T05:51:51;6.28;;;3.58;;
20855;SDS011;63058;49.424;8.420;2023-10-13T05:54:17;5.85;;;3.83;;
20855;SDS011;63058;49.424;8.420;2023-10-13T05:56:47;5.82;;;3.47;;
20855;SDS011;63058;49.424;8.420;2023-10-13T05:59:35;5.18;;;3.30;;
20855;SDS011;63058;49.424;8.420;2023-10-13T06:02:21;8.13;;;3.65;;
20855;SDS011;63058;49.424;8.420;2023-10-13T06:05:10;8.55;;;3.33;;
20855;SDS011;63058;49.424;8.420;2023-10-13T06:07:55;5.13;;;3.72;;
20855;SDS011;63058;49.424;8.420;2023-10-13T06:10:41;7.32;;;3.88;;
20855;SDS011;63058;49.424;8.420;2023-10-13T06:13:26;5.80;;;3.47;;
20855;SDS011;63058;49.424;8.420;2023-10-13T06:16:14;7.78;;;3.53;;
20855;SDS011;63058;49.424;8.420;2023-10-13T06:18:59;8.63;;;3.30;;
20855;SDS011;63058;49.424;8.420;2023-10-13T06:21:44;7.03;;;3.22;;
20855;SDS011;63058;49.424;8.420;2023-10-13T06:24:29;7.00;;;3.38;;
20855;SDS011;63058;49.424;8.420;2023-10-13T06:27:14;6.25;;;3.45;;
20855;SDS011;63058;49.424;8.420;2023-10-13T06:29:59;7.07;;;3.42;;
20855;SDS011;63058;49.424;8.420;2023-10-13T06:32:26;9.65;;;3.42;;
20855;SDS011;63058;49.424;8.420;2023-10-13T06:34:52;5.75;;;3.50;;
20855;SDS011;63058;49.424;8.420;2023-10-13T06:37:22;5.28;;;3.15;;
20855;SDS011;63058;49.424;8.420;2023-10-13T06:39:50;5.80;;;3.30;;
20855;SDS011;63058;49.424;8.420;2023-10-13T06:42:30;7.43;;;3.47;;
20855;SDS011;63058;49.424;8.420;2023-10-13T06:44:59;6.18;;;2.80;;
20855;SDS011;63058;49.424;8.420;2023-10-13T06:47:33;6.55;;;3.05;;
20855;SDS011;63058;49.424;8.420;2023-10-13T06:50:05;6.13;;;3.40;;
20855;SDS011;63058;49.424;8.420;2023-10-13T06:52:40;7.03;;;3.33;;
20855;SDS011;63058;49.424;8.420;2023-10-13T06:55:07;6.53;;;3.17;;
20855;SDS011;63058;49.424;8.420;2023-10-13T06:57:35;4.25;;;3.05;;
20855;SDS011;63058;49.424;8.420;2023-10-13T07:00:01;4.72;;;2.88;;
20855;SDS011;63058;49.424;8.420;2023-10-13T07:02:32;4.28;;;3.00;;
20855;SDS011;63058;49.424;8.420;2023-10-13T07:04:59;4.13;;;3.17;;
20855;SDS011;63058;49.424;8.420;2023-10-13T07:07:38;6.45;;;3.38;;
20855;SDS011;63058;49.424;8.420;2023-10-13T07:10:08;6.47;;;3.58;;
20855;SDS011;63058;49.424;8.420;2023-10-13T07:12:34;7.20;;;3.30;;
20855;SDS011;63058;49.424;8.420;2023-10-13T07:15:00;5.50;;;3.35;;
20855;SDS011;63058;49.424;8.420;2023-10-13T07:17:45;5.65;;;3.25;;
20855;SDS011;63058;49.424;8.420;2023-10-13T07:20:12;4.65;;;2.90;;
20855;SDS011;63058;49.424;8.420;2023-10-13T07:22:48;6.80;;;3.40;;
20855;SDS011;63058;49.424;8.420;2023-10-13T07:25:31;4.55;;;3.13;;
20855;SDS011;63058;49.424;8.420;2023-10-13T07:28:01;6.82;;;3.35;;
20855;SDS011;63058;49.424;8.420;2023-10-13T07:30:28;7.40;;;3.60;;
20855;SDS011;63058;49.424;8.420;2023-10-13T07:33:04;5.03;;;2.97;;
20855;SDS011;63058;49.424;8.420;2023-10-13T07:35:31;6.22;;;3.17;;
20855;SDS011;63058;49.424;8.420;2023-10-13T07:38:00;5.40;;;2.97;;
20855;SDS011;63058;49.424;8.420;2023-10-13T07:40:27;6.93;;;2.83;;
20855;SDS011;63058;49.424;8.420;2023-10-13T07:42:53;7.35;;;2.92;;
20855;SDS011;63058;49.424;8.420;2023-10-13T07:45:36;3.97;;;2.70;;
20855;SDS011;63058;49.424;8.420;2023-10-13T07:48:06;4.45;;;2.78;;
20855;SDS011;63058;49.424;8.420;2023-10-13T07:50:58;7.00;;;2.75;;
20855;SDS011;63058;49.424;8.420;2023-10-13T07:53:28;3.63;;;2.45;;
20855;SDS011;63058;49.424;8.420;2023-10-13T07:55:59;5.88;;;2.75;;
20855;SDS011;63058;49.424;8.420;2023-10-13T07:58:30;3.72;;;2.17;;
20855;SDS011;63058;49.424;8.420;2023-10-13T08:00:58;5.97;;;2.70;;
20855;SDS011;63058;49.424;8.420;2023-10-13T08:03:23;5.13;;;2.80;;
20855;SDS011;63058;49.424;8.420;2023-10-13T08:06:07;5.72;;;2.38;;
20855;SDS011;63058;49.424;8.420;2023-10-13T08:08:36;5.22;;;2.55;;
20855;SDS011;63058;49.424;8.420;2023-10-13T08:13:58;5.95;;;3.00;;
20855;SDS011;63058;49.424;8.420;2023-10-13T08:16:25;4.60;;;2.65;;
20855;SDS011;63058;49.424;8.420;2023-10-13T08:19:12;9.55;;;2.50;;
20855;SDS011;63058;49.424;8.420;2023-10-13T08:21:45;4.15;;;2.55;;
20855;SDS011;63058;49.424;8.420;2023-10-13T08:24:19;4.70;;;2.75;;
20855;SDS011;63058;49.424;8.420;2023-10-13T08:26:54;5.22;;;2.70;;
20855;SDS011;63058;49.424;8.420;2023-10-13T08:29:39;7.05;;;2.75;;
20855;SDS011;63058;49.424;8.420;2023-10-13T08:32:21;5.22;;;2.60;;
20855;SDS011;63058;49.424;8.420;2023-10-13T08:34:57;7.90;;;2.83;;
20855;SDS011;63058;49.424;8.420;2023-10-13T08:37:25;4.75;;;2.70;;
20855;SDS011;63058;49.424;8.420;2023-10-13T08:39:51;5.35;;;2.78;;
20855;SDS011;63058;49.424;8.420;2023-10-13T08:42:39;5.65;;;2.80;;
20855;SDS011;63058;49.424;8.420;2023-10-13T08:45:09;5.15;;;2.65;;
20855;SDS011;63058;49.424;8.420;2023-10-13T08:47:52;6.55;;;2.83;;
20855;SDS011;63058;49.424;8.420;2023-10-13T08:50:32;5.70;;;2.50;;
20855;SDS011;63058;49.424;8.420;2023-10-13T08:53:21;8.02;;;2.83;;
20855;SDS011;63058;49.424;8.420;2023-10-13T08:56:11;6.47;;;2.58;;
20855;SDS011;63058;49.424;8.420;2023-10-13T09:12:23;5.20;;;2.30;;
20855;SDS011;63058;49.424;8.420;2023-10-13T09:14:57;5.57;;;2.50;;
20855;SDS011;63058;49.424;8.420;2023-10-13T09:17:26;5.30;;;2.53;;
20855;SDS011;63058;49.424;8.420;2023-10-13T09:20:01;5.80;;;2.63;;
20855;SDS011;63058;49.424;8.420;2023-10-13T09:22:47;5.47;;;2.50;;
20855;SDS011;63058;49.424;8.420;2023-10-13T09:27:59;4.88;;;2.70;;
20855;SDS011;63058;49.424;8.420;2023-10-13T09:30:26;8.80;;;2.50;;
20855;SDS011;63058;49.424;8.420;2023-10-13T09:33:02;5.35;;;2.85;;
20855;SDS011;63058;49.424;8.420;2023-10-13T09:35:40;11.43;;;2.70;;
20855;SDS011;63058;49.424;8.420;2023-10-13T09:38:16;11.95;;;2.65;;
20855;SDS011;63058;49.424;8.420;2023-10-13T09:40:43;7.53;;;2.60;;
20855;SDS011;63058;49.424;8.420;2023-10-13T09:43:18;7.20;;;2.60;;
20855;SDS011;63058;49.424;8.420;2023-10-13T09:45:47;5.93;;;3.13;;
20855;SDS011;63058;49.424;8.420;2023-10-13T09:48:36;3.83;;;2.42;;
20855;SDS011;63058;49.424;8.420;2023-10-13T09:51:06;5.75;;;2.70;;
20855;SDS011;63058;49.424;8.420;2023-10-13T09:53:47;7.15;;;2.72;;
20855;SDS011;63058;49.424;8.420;2023-10-13T09:56:20;5.65;;;2.45;;
20855;SDS011;63058;49.424;8.420;2023-10-13T09:59:11;7.82;;;2.25;;
20855;SDS011;63058;49.424;8.420;2023-10-13T10:01:42;6.63;;;2.40;;
20855;SDS011;63058;49.424;8.420;2023-10-13T10:04:23;4.68;;;2.47;;
20855;SDS011;63058;49.424;8.420;2023-10-13T10:09:18;5.32;;;2.38;;
20855;SDS011;63058;49.424;8.420;2023-10-13T10:17:55;4.43;;;2.88;;
20855;SDS011;63058;49.424;8.420;2023-10-13T10:20:31;5.72;;;2.30;;
20855;SDS011;63058;49.424;8.420;2023-10-13T10:23:04;5.05;;;2.78;;
20855;SDS011;63058;49.424;8.420;2023-10-13T10:25:31;6.35;;;2.90;;
20855;SDS011;63058;49.424;8.420;2023-10-13T10:28:09;6.13;;;2.25;;
20855;SDS011;63058;49.424;8.420;2023-10-13T10:30:40;3.95;;;2.40;;
20855;SDS011;63058;49.424;8.420;2023-10-13T10:33:07;4.80;;;2.70;;
20855;SDS011;63058;49.424;8.420;2023-10-13T10:35:44;5.10;;;2.83;;
20855;SDS011;63058;49.424;8.420;2023-10-13T10:43:26;7.03;;;3.00;;
20855;SDS011;63058;49.424;8.420;2023-10-13T10:46:14;5.65;;;2.80;;
20855;SDS011;63058;49.424;8.420;2023-10-13T10:48:44;6.25;;;2.38;;
20855;SDS011;63058;49.424;8.420;2023-10-13T10:51:10;5.82;;;2.97;;
20855;SDS011;63058;49.424;8.420;2023-10-13T10:54:00;12.18;;;2.28;;
20855;SDS011;63058;49.424;8.420;2023-10-13T10:56:36;4.95;;;2.70;;
20855;SDS011;63058;49.424;8.420;2023-10-13T10:59:06;6.07;;;3.08;;
20855;SDS011;63058;49.424;8.420;2023-10-13T11:01:45;4.25;;;1.98;;
20855;SDS011;63058;49.424;8.420;2023-10-13T11:04:17;9.63;;;2.60;;
20855;SDS011;63058;49.424;8.420;2023-10-13T11:09:14;6.47;;;2.70;;
20855;SDS011;63058;49.424;8.420;2023-10-13T11:11:55;4.90;;;2.42;;
20855;SDS011;63058;49.424;8.420;2023-10-13T11:14:26;7.40;;;2.28;;
20855;SDS011;63058;49.424;8.420;2023-10-13T11:16:54;5.85;;;2.45;;
20855;SDS011;63058;49.424;8.420;2023-10-13T11:22:09;6.15;;;2.83;;
20855;SDS011;63058;49.424;8.420;2023-10-13T11:25:04;3.83;;;2.13;;
20855;SDS011;63058;49.424;8.420;2023-10-13T11:27:37;6.63;;;2.40;;
20855;SDS011;63058;49.424;8.420;2023-10-13T11:30:21;7.30;;;2.70;;
20855;SDS011;63058;49.424;8.420;2023-10-13T11:33:00;6.00;;;2.67;;
20855;SDS011;63058;49.424;8.420;2023-10-13T11:35:33;2.78;;;2.35;;
20855;SDS011;63058;49.424;8.420;2023-10-13T11:38:18;4.00;;;2.30;;
20855;SDS011;63058;49.424;8.420;2023-10-13T11:40:58;4.00;;;2.40;;
20855;SDS011;63058;49.424;8.420;2023-10-13T11:43:36;4.80;;;2.40;;
20855;SDS011;63058;49.424;8.420;2023-10-13T11:46:12;2.83;;;2.00;;
20855;SDS011;63058;49.424;8.420;2023-10-13T11:48:44;3.13;;;1.90;;
20855;SDS011;63058;49.424;8.420;2023-10-13T11:51:12;3.85;;;2.35;;
20855;SDS011;63058;49.424;8.420;2023-10-13T11:54:05;3.92;;;2.40;;
20855;SDS011;63058;49.424;8.420;2023-10-13T11:56:30;6.00;;;2.65;;
20855;SDS011;63058;49.424;8.420;2023-10-13T11:58:56;4.78;;;2.78;;
20855;SDS011;63058;49.424;8.420;2023-10-13T12:01:26;6.28;;;2.30;;
20855;SDS011;63058;49.424;8.420;2023-10-13T12:04:12;6.47;;;2.50;;
20855;SDS011;63058;49.424;8.420;2023-10-13T12:06:57;5.45;;;2.75;;
20855;SDS011;63058;49.424;8.420;2023-10-13T12:09:43;5.75;;;2.60;;
20855;SDS011;63058;49.424;8.420;2023-10-13T12:12:18;3.40;;;2.20;;
20855;SDS011;63058;49.424;8.420;2023-10-13T12:14:44;5.93;;;2.67;;
20855;SDS011;63058;49.424;8.420;2023-10-13T12:17:22;4.75;;;2.63;;
20855;SDS011;63058;49.424;8.420;2023-10-13T12:20:04;4.20;;;2.45;;
20855;SDS011;63058;49.424;8.420;2023-10-13T12:22:34;7.15;;;3.40;;
20855;SDS011;63058;49.424;8.420;2023-10-13T12:25:01;9.30;;;2.50;;
20855;SDS011;63058;49.424;8.420;2023-10-13T12:27:30;6.15;;;2.65;;
20855;SDS011;63058;49.424;8.420;2023-10-13T12:30:23;3.28;;;2.70;;
20855;SDS011;63058;49.424;8.420;2023-10-13T12:33:03;4.80;;;2.72;;
20855;SDS011;63058;49.424;8.420;2023-10-13T12:35:35;8.18;;;2.35;;
20855;SDS011;63058;49.424;8.420;2023-10-13T12:38:10;4.80;;;2.70;;
20855;SDS011;63058;49.424;8.420;2023-10-13T12:41:04;5.68;;;2.40;;
20855;SDS011;63058;49.424;8.420;2023-10-13T12:43:48;5.20;;;2.50;;
20855;SDS011;63058;49.424;8.420;2023-10-13T12:46:36;5.13;;;2.50;;
20855;SDS011;63058;49.424;8.420;2023-10-13T12:49:20;3.33;;;2.15;;
20855;SDS011;63058;49.424;8.420;2023-10-13T12:52:04;4.38;;;2.17;;
20855;SDS011;63058;49.424;8.420;2023-10-13T12:54:41;5.38;;;2.53;;
20855;SDS011;63058;49.424;8.420;2023-10-13T12:59:50;4.53;;;2.20;;
20855;SDS011;63058;49.424;8.420;2023-10-13T13:02:19;5.28;;;1.88;;
20855;SDS011;63058;49.424;8.420;2023-10-13T13:04:50;4.97;;;2.35;;
20855;SDS011;63058;49.424;8.420;2023-10-13T13:07:22;4.90;;;2.00;;
20855;SDS011;63058;49.424;8.420;2023-10-13T13:09:54;6.78;;;2.30;;
20855;SDS011;63058;49.424;8.420;2023-10-13T13:12:23;5.32;;;2.38;;
20855;SDS011;63058;49.424;8.420;2023-10-13T13:14:49;4.50;;;2.42;;
20855;SDS011;63058;49.424;8.420;2023-10-13T13:17:19;2.90;;;1.98;;
20855;SDS011;63058;49.424;8.420;2023-10-13T13:19:48;8.70;;;2.45;;
20855;SDS011;63058;49.424;8.420;2023-10-13T13:22:14;5.63;;;2.90;;
20855;SDS011;63058;49.424;8.420;2023-10-13T13:24:41;5.35;;;2.25;;
20855;SDS011;63058;49.424;8.420;2023-10-13T13:27:10;7.10;;;2.63;;
20855;SDS011;63058;49.424;8.420;2023-10-13T13:29:39;4.20;;;2.30;;
20855;SDS011;63058;49.424;8.420;2023-10-13T13:32:08;6.00;;;2.45;;
20855;SDS011;63058;49.424;8.420;2023-10-13T13:35:03;8.20;;;2.47;;
20855;SDS011;63058;49.424;8.420;2023-10-13T13:37:29;4.55;;;2.35;;
20855;SDS011;63058;49.424;8.420;2023-10-13T13:39:56;4.70;;;2.30;;
20855;SDS011;63058;49.424;8.420;2023-10-13T13:42:38;7.60;;;2.63;;
20855;SDS011;63058;49.424;8.420;2023-10-13T13:45:06;4.40;;;2.20;;
20855;SDS011;63058;49.424;8.420;2023-10-13T13:47:36;4.40;;;2.10;;
20855;SDS011;63058;49.424;8.420;2023-10-13T13:50:02;4.72;;;2.17;;
20855;SDS011;63058;49.424;8.420;2023-10-13T13:52:39;7.90;;;2.30;;
20855;SDS011;63058;49.424;8.420;2023-10-13T13:55:11;7.38;;;2.45;;
20855;SDS011;63058;49.424;8.420;2023-10-13T13:57:42;5.47;;;2.45;;
20855;SDS011;63058;49.424;8.420;2023-10-13T14:00:09;6.18;;;2.38;;
20855;SDS011;63058;49.424;8.420;2023-10-13T14:02:42;4.97;;;2.30;;
20855;SDS011;63058;49.424;8.420;2023-10-13T14:05:12;7.13;;;2.25;;
20855;SDS011;63058;49.424;8.420;2023-10-13T14:07:41;4.65;;;2.35;;
20855;SDS011;63058;49.424;8.420;2023-10-13T14:10:14;6.07;;;2.30;;
20855;SDS011;63058;49.424;8.420;2023-10-13T14:12:57;6.25;;;2.30;;
20855;SDS011;63058;49.424;8.420;2023-10-13T14:15:38;3.40;;;1.88;;
20855;SDS011;63058;49.424;8.420;2023-10-13T14:18:09;6.65;;;2.25;;
20855;SDS011;63058;49.424;8.420;2023-10-13T14:20:40;4.35;;;1.90;;
20855;SDS011;63058;49.424;8.420;2023-10-13T14:23:07;5.75;;;1.88;;
20855;SDS011;63058;49.424;8.420;2023-10-13T14:25:39;7.07;;;1.95;;
20855;SDS011;63058;49.424;8.420;2023-10-13T14:28:09;7.13;;;2.08;;
20855;SDS011;63058;49.424;8.420;2023-10-13T14:30:40;4.60;;;2.30;;
20855;SDS011;63058;49.424;8.420;2023-10-13T14:33:05;4.75;;;1.98;;
20855;SDS011;63058;49.424;8.420;2023-10-13T14:35:36;3.60;;;1.88;;
20855;SDS011;63058;49.424;8.420;2023-10-13T14:38:01;6.82;;;2.30;;
20855;SDS011;63058;49.424;8.420;2023-10-13T14:40:28;6.40;;;2.20;;
20855;SDS011;63058;49.424;8.420;2023-10-13T14:42:54;5.18;;;2.25;;
20855;SDS011;63058;49.424;8.420;2023-10-13T14:45:21;5.05;;;1.95;;
20855;SDS011;63058;49.424;8.420;2023-10-13T14:47:47;3.10;;;2.05;;
20855;SDS011;63058;49.424;8.420;2023-10-13T14:50:12;7.00;;;1.95;;
20855;SDS011;63058;49.424;8.420;2023-10-13T14:52:45;5.63;;;2.13;;
20855;SDS011;63058;49.424;8.420;2023-10-13T14:55:11;3.00;;;2.03;;
20855;SDS011;63058;49.424;8.420;2023-10-13T14:57:44;5.68;;;1.90;;
20855;SDS011;63058;49.424;8.420;2023-10-13T15:00:14;5.50;;;1.80;;
20855;SDS011;63058;49.424;8.420;2023-10-13T15:02:43;5.65;;;2.85;;
20855;SDS011;63058;49.424;8.420;2023-10-13T15:05:11;8.32;;;3.55;;
20855;SDS011;63058;49.424;8.420;2023-10-13T15:07:42;3.85;;;2.00;;
20855;SDS011;63058;49.424;8.420;2023-10-13T15:10:10;9.23;;;2.03;;
20855;SDS011;63058;49.424;8.420;2023-10-13T15:12:40;7.15;;;2.20;;
20855;SDS011;63058;49.424;8.420;2023-10-13T15:15:12;3.15;;;1.90;;
20855;SDS011;63058;49.424;8.420;2023-10-13T15:17:44;3.42;;;1.73;;
20855;SDS011;63058;49.424;8.420;2023-10-13T15:20:10;5.32;;;2.38;;
20855;SDS011;63058;49.424;8.420;2023-10-13T15:22:43;3.17;;;1.83;;
20855;SDS011;63058;49.424;8.420;2023-10-13T15:25:09;3.80;;;1.77;;
20855;SDS011;63058;49.424;8.420;2023-10-13T15:27:43;4.43;;;1.85;;
20855;SDS011;63058;49.424;8.420;2023-10-13T15:30:15;4.05;;;1.60;;
20855;SDS011;63058;49.424;8.420;2023-10-13T15:32:49;5.18;;;1.77;;
20855;SDS011;63058;49.424;8.420;2023-10-13T15:35:16;4.72;;;1.70;;
20855;SDS011;63058;49.424;8.420;2023-10-13T15:37:42;4.90;;;1.63;;
20855;SDS011;63058;49.424;8.420;2023-10-13T15:40:12;2.88;;;1.70;;
20855;SDS011;63058;49.424;8.420;2023-10-13T15:42:40;4.25;;;1.67;;
20855;SDS011;63058;49.424;8.420;2023-10-13T15:45:07;3.35;;;2.00;;
20855;SDS011;63058;49.424;8.420;2023-10-13T15:47:41;4.55;;;1.75;;
20855;SDS011;63058;49.424;8.420;2023-10-13T15:50:11;6.13;;;1.98;;
20855;SDS011;63058;49.424;8.420;2023-10-13T15:52:40;7.28;;;2.00;;
20855;SDS011;63058;49.424;8.420;2023-10-13T15:55:14;3.70;;;1.63;;
20855;SDS011;63058;49.424;8.420;2023-10-13T15:57:42;5.20;;;1.70;;
20855;SDS011;63058;49.424;8.420;2023-10-13T16:00:09;4.20;;;2.00;;
20855;SDS011;63058;49.424;8.420;2023-10-13T16:02:54;5.45;;;1.92;;
20855;SDS011;63058;49.424;8.420;2023-10-13T16:05:30;3.58;;;1.88;;
20855;SDS011;63058;49.424;8.420;2023-10-13T16:07:59;6.97;;;1.70;;
20855;SDS011;63058;49.424;8.420;2023-10-13T16:10:26;5.80;;;1.75;;
20855;SDS011;63058;49.424;8.420;2023-10-13T16:12:54;5.00;;;1.85;;
20855;SDS011;63058;49.424;8.420;2023-10-13T16:15:22;4.22;;;1.75;;
20855;SDS011;63058;49.424;8.420;2023-10-13T16:17:48;7.72;;;1.80;;